createdAt,value
2022-10-10T00:01:16.864Z,88.72
2022-10-10T00:03:45.164Z,88.87
2022-10-10T00:06:14.143Z,88.79
2022-10-10T00:08:42.777Z,88.87
2022-10-10T00:11:10.991Z,88.70
2022-10-10T00:13:39.528Z,88.86
2022-10-10T00:16:07.372Z,88.86
2022-10-10T00:18:35.530Z,88.88
2022-10-10T00:21:04.167Z,88.95
2022-10-10T00:23:31.881Z,88.98
2022-10-10T00:26:00.062Z,88.84
2022-10-10T00:28:28.523Z,88.72
2022-10-10T00:30:56.353Z,88.60
2022-10-10T00:33:24.087Z,88.44
2022-10-10T00:35:51.739Z,88.53
2022-10-10T00:38:19.439Z,88.36
2022-10-10T00:40:53.523Z,88.37
2022-10-10T00:43:23.021Z,88.35
2022-10-10T00:45:51.807Z,88.29
2022-10-10T00:48:22.962Z,88.52
2022-10-10T00:51:00.176Z,88.46
2022-10-10T00:53:33.821Z,88.60
2022-10-10T00:56:03.090Z,88.57
2022-10-10T00:58:31.251Z,88.62
2022-10-10T01:00:59.057Z,88.76
2022-10-10T01:03:27.016Z,89.37
2022-10-10T01:05:54.823Z,89.56
2022-10-10T01:08:23.614Z,89.71
2022-10-10T01:11:12.321Z,89.63
2022-10-10T01:14:01.042Z,90.40
2022-10-10T01:16:34.531Z,90.11
2022-10-10T01:19:30.643Z,90.00
2022-10-10T01:22:19.161Z,90.20
2022-10-10T01:25:05.086Z,90.39
2022-10-10T01:28:08.098Z,90.60
2022-10-10T01:30:36.281Z,90.65
2022-10-10T01:33:16.594Z,90.47
2022-10-10T01:36:17.314Z,90.55
2022-10-10T01:38:53.666Z,91.45
2022-10-10T01:41:38.174Z,91.02
2022-10-10T01:44:05.874Z,90.93
2022-10-10T01:46:33.761Z,90.82
2022-10-10T01:49:03.103Z,90.86
2022-10-10T01:51:45.762Z,90.92
2022-10-10T01:54:33.611Z,91.24
2022-10-10T01:57:13.154Z,91.09
2022-10-10T01:59:59.595Z,91.17
2022-10-10T02:02:45.488Z,91.00
2022-10-10T02:05:30.819Z,91.15
2022-10-10T02:08:04.394Z,91.24
2022-10-10T02:10:36.723Z,91.03
2022-10-10T02:13:07.227Z,91.05
2022-10-10T02:15:51.473Z,91.20
2022-10-10T02:18:23.626Z,91.13
2022-10-10T02:20:54.222Z,90.97
2022-10-10T02:23:23.762Z,91.00
2022-10-10T02:25:54.374Z,90.98
2022-10-10T02:28:26.916Z,91.07
2022-10-10T02:30:58.830Z,91.04
2022-10-10T02:33:45.433Z,90.96
2022-10-10T02:36:15.498Z,91.02
2022-10-10T02:38:44.900Z,90.83
2022-10-10T02:41:15.929Z,90.80
2022-10-10T02:43:43.994Z,90.95
2022-10-10T02:46:14.808Z,90.76
2022-10-10T02:48:42.706Z,90.77
2022-10-10T02:51:11.848Z,90.67
2022-10-10T02:53:40.071Z,90.65
2022-10-10T02:56:07.933Z,90.58
2022-10-10T02:58:35.839Z,90.53
2022-10-10T03:01:03.549Z,90.45
2022-10-10T03:03:31.396Z,90.27
2022-10-10T03:05:59.096Z,90.14
2022-10-10T03:08:26.778Z,90.12
2022-10-10T03:11:02.375Z,90.17
2022-10-10T03:13:30.189Z,89.93
2022-10-10T03:15:58.016Z,89.89
2022-10-10T03:18:25.699Z,90.07
2022-10-10T03:20:57.685Z,90.00
2022-10-10T03:23:26.243Z,90.10
2022-10-10T03:25:54.302Z,89.92
2022-10-10T03:28:22.467Z,89.92
2022-10-10T03:30:50.323Z,89.76
2022-10-10T03:33:18.053Z,89.83
2022-10-10T03:35:45.712Z,89.77
2022-10-10T03:38:14.736Z,89.83
2022-10-10T03:40:44.734Z,89.87
2022-10-10T03:43:14.704Z,89.76
2022-10-10T03:45:47.083Z,89.80
2022-10-10T03:48:15.402Z,89.88
2022-10-10T03:50:43.185Z,90.00
2022-10-10T03:53:11.078Z,89.82
2022-10-10T03:55:41.640Z,89.95
2022-10-10T03:58:12.470Z,89.81
2022-10-10T04:00:40.269Z,89.93
2022-10-10T04:03:09.159Z,89.93
2022-10-10T04:05:38.967Z,90.06
2022-10-10T04:08:07.306Z,89.92
2022-10-10T04:10:35.023Z,90.01
2022-10-10T04:13:02.658Z,90.11
2022-10-10T04:15:31.614Z,90.13
2022-10-10T04:18:00.157Z,90.07
2022-10-10T04:20:27.886Z,90.13
2022-10-10T04:22:55.523Z,90.10
2022-10-10T04:25:23.322Z,90.10
2022-10-10T04:27:51.086Z,90.14
2022-10-10T04:30:19.848Z,90.03
2022-10-10T04:32:47.507Z,89.91
2022-10-10T04:35:15.362Z,89.77
2022-10-10T04:37:43.009Z,89.94
2022-10-10T04:40:11.186Z,90.02
2022-10-10T04:42:38.994Z,90.06
2022-10-10T04:45:08.288Z,89.89
2022-10-10T04:47:35.935Z,90.10
2022-10-10T04:50:03.582Z,90.07
2022-10-10T04:52:31.227Z,90.07
2022-10-10T04:54:58.879Z,89.98
2022-10-10T04:57:26.550Z,90.03
2022-10-10T04:59:54.225Z,90.00
2022-10-10T05:02:21.875Z,90.12
2022-10-10T05:04:50.156Z,90.15
2022-10-10T05:07:17.910Z,90.10
2022-10-10T05:09:45.529Z,90.14
2022-10-10T05:12:13.173Z,90.22
2022-10-10T05:14:45.843Z,90.33
2022-10-10T05:17:15.958Z,90.31
2022-10-10T05:19:43.709Z,90.33
2022-10-10T05:22:11.458Z,90.36
2022-10-10T05:24:39.148Z,90.35
2022-10-10T05:27:07.119Z,90.25
2022-10-10T05:29:34.738Z,90.34
2022-10-10T05:32:04.437Z,90.29
2022-10-10T05:34:35.388Z,90.24
2022-10-10T05:37:03.110Z,90.26
2022-10-10T05:39:30.864Z,90.25
2022-10-10T05:41:58.491Z,90.35
2022-10-10T05:44:26.320Z,90.39
2022-10-10T05:46:54.333Z,90.64
2022-10-10T05:49:22.379Z,90.58
2022-10-10T05:51:50.469Z,90.63
2022-10-10T05:54:18.289Z,90.80
2022-10-10T05:56:46.002Z,90.76
2022-10-10T05:59:13.593Z,90.79
2022-10-10T06:01:41.474Z,90.80
2022-10-10T06:04:09.752Z,90.67
2022-10-10T06:06:37.444Z,90.69
2022-10-10T06:09:05.075Z,90.82
2022-10-10T06:11:32.846Z,90.77
2022-10-10T06:14:00.500Z,90.78
2022-10-10T06:16:29.179Z,90.82
2022-10-10T06:18:59.852Z,90.68
2022-10-10T06:21:27.765Z,90.62
2022-10-10T06:23:55.493Z,90.68
2022-10-10T06:26:23.333Z,90.51
2022-10-10T06:28:53.817Z,90.45
2022-10-10T06:31:21.501Z,90.25
2022-10-10T06:33:50.272Z,90.56
2022-10-10T06:36:18.164Z,90.61
2022-10-10T06:38:47.150Z,90.74
2022-10-10T06:41:14.950Z,91.05
2022-10-10T06:43:42.724Z,91.35
2022-10-10T06:46:11.328Z,91.39
2022-10-10T06:48:39.148Z,91.30
2022-10-10T06:51:10.352Z,91.34
2022-10-10T06:53:38.041Z,91.13
2022-10-10T06:56:05.952Z,91.17
2022-10-10T06:58:34.567Z,90.98
2022-10-10T07:01:05.781Z,90.68
2022-10-10T07:03:33.539Z,90.80
2022-10-10T07:06:02.776Z,90.61
2022-10-10T07:08:31.669Z,90.51
2022-10-10T07:10:59.349Z,90.53
2022-10-10T07:13:27.045Z,90.40
2022-10-10T07:15:54.812Z,90.33
2022-10-10T07:18:23.153Z,90.23
2022-10-10T07:20:50.916Z,90.10
2022-10-10T07:23:19.098Z,90.13
2022-10-10T07:25:46.730Z,90.18
2022-10-10T07:28:14.695Z,90.28
2022-10-10T07:30:44.895Z,90.37
2022-10-10T07:33:14.355Z,90.62
2022-10-10T07:35:42.358Z,90.59
2022-10-10T07:38:12.342Z,90.55
2022-10-10T07:40:43.144Z,90.67
2022-10-10T07:43:11.015Z,90.88
2022-10-10T07:45:38.702Z,90.85
2022-10-10T07:48:06.604Z,90.88
2022-10-10T07:50:34.185Z,91.05
2022-10-10T07:53:04.255Z,90.98
2022-10-10T07:55:31.869Z,91.07
2022-10-10T07:58:00.645Z,91.01
2022-10-10T08:00:28.547Z,90.98
2022-10-10T08:02:56.329Z,90.84
2022-10-10T08:05:24.057Z,90.85
2022-10-10T08:07:52.000Z,90.60
2022-10-10T08:10:19.952Z,90.43
2022-10-10T08:12:47.638Z,90.54
2022-10-10T08:15:15.310Z,90.46
2022-10-10T08:17:42.949Z,90.30
2022-10-10T08:20:11.579Z,89.96
2022-10-10T08:22:39.248Z,90.07
2022-10-10T08:25:07.510Z,89.87
2022-10-10T08:27:35.197Z,89.66
2022-10-10T08:30:02.937Z,89.73
2022-10-10T08:32:30.607Z,89.63
2022-10-10T08:34:58.209Z,89.59
2022-10-10T08:37:30.416Z,89.16
2022-10-10T08:40:00.295Z,89.42
2022-10-10T08:42:39.602Z,89.45
2022-10-10T08:45:16.815Z,89.38
2022-10-10T08:48:16.194Z,89.37
2022-10-10T08:50:49.585Z,88.87
2022-10-10T08:53:36.050Z,88.85
2022-10-10T08:56:07.013Z,88.62
2022-10-10T08:58:43.394Z,88.40
2022-10-10T09:01:23.862Z,87.98
2022-10-10T09:04:00.358Z,87.61
2022-10-10T09:06:58.539Z,87.91
2022-10-10T09:09:31.808Z,87.64
2022-10-10T09:12:08.399Z,87.20
2022-10-10T09:15:04.778Z,87.45
2022-10-10T09:18:09.813Z,87.24
2022-10-10T09:21:04.878Z,87.08
2022-10-10T09:23:42.106Z,87.00
2022-10-10T09:26:18.793Z,86.97
2022-10-10T09:28:56.921Z,86.82
2022-10-10T09:31:32.974Z,86.92
2022-10-10T09:34:24.035Z,86.87
2022-10-10T09:36:55.075Z,86.67
2022-10-10T09:40:04.153Z,86.74
2022-10-10T09:42:40.318Z,85.12
2022-10-10T09:45:21.343Z,85.94
2022-10-10T09:47:52.384Z,85.51
2022-10-10T09:50:20.134Z,85.53
2022-10-10T09:52:48.686Z,85.52
2022-10-10T09:55:30.155Z,85.26
2022-10-10T09:58:04.179Z,85.05
2022-10-10T10:00:37.596Z,85.07
2022-10-10T10:03:14.354Z,85.09
2022-10-10T10:05:46.406Z,84.87
2022-10-10T10:08:49.847Z,84.82
2022-10-10T10:11:32.782Z,84.23
2022-10-10T10:14:03.388Z,84.25
2022-10-10T10:16:32.610Z,84.24
2022-10-10T10:19:00.611Z,84.16
2022-10-10T10:21:28.798Z,84.08
2022-10-10T10:24:04.465Z,83.89
2022-10-10T10:26:45.610Z,83.68
2022-10-10T10:29:28.777Z,83.73
2022-10-10T10:32:05.353Z,83.91
2022-10-10T10:34:38.556Z,83.97
2022-10-10T10:37:25.016Z,83.75
2022-10-10T10:40:15.959Z,83.59
2022-10-10T10:43:13.956Z,83.66
2022-10-10T10:46:04.171Z,83.83
2022-10-10T10:48:37.475Z,84.23
2022-10-10T10:51:26.455Z,83.92
2022-10-10T10:54:35.294Z,83.89
2022-10-10T10:57:36.986Z,83.94
2022-10-10T11:00:47.206Z,84.39
2022-10-10T11:04:16.087Z,84.07
2022-10-10T11:06:27.731Z,83.99
2022-10-10T11:09:06.337Z,83.94
2022-10-10T11:11:52.406Z,83.65
2022-10-10T11:14:25.779Z,83.13
2022-10-10T11:17:02.286Z,83.46
2022-10-10T11:19:44.072Z,83.43
2022-10-10T11:22:23.333Z,83.27
2022-10-10T11:25:04.306Z,82.98
2022-10-10T11:27:48.599Z,82.53
2022-10-10T11:30:24.525Z,82.12
2022-10-10T11:33:03.949Z,82.12
2022-10-10T11:35:37.681Z,81.76
2022-10-10T11:38:14.467Z,81.62
2022-10-10T11:40:56.138Z,81.37
2022-10-10T11:43:49.672Z,81.22
2022-10-10T11:46:24.429Z,80.90
2022-10-10T11:49:13.458Z,80.81
2022-10-10T11:52:21.539Z,80.52
2022-10-10T11:55:11.467Z,80.60
2022-10-10T11:57:54.746Z,80.42
2022-10-10T12:00:23.027Z,80.33
2022-10-10T12:02:51.036Z,80.37
2022-10-10T12:05:18.649Z,80.43
2022-10-10T12:08:17.969Z,80.31
2022-10-10T12:10:53.417Z,80.14
2022-10-10T12:13:50.191Z,80.27
2022-10-10T12:16:24.815Z,80.05
2022-10-10T12:19:03.675Z,79.87
2022-10-10T12:21:32.633Z,79.87
2022-10-10T12:24:13.920Z,79.78
2022-10-10T12:26:53.720Z,79.35
2022-10-10T12:29:41.595Z,79.15
2022-10-10T12:32:15.344Z,78.50
2022-10-10T12:34:48.940Z,78.85
2022-10-10T12:37:32.738Z,78.67
2022-10-10T12:40:21.987Z,78.83
2022-10-10T12:42:49.576Z,77.89
2022-10-10T12:45:32.378Z,78.36
2022-10-10T12:48:18.376Z,77.95
2022-10-10T12:51:01.779Z,77.60
2022-10-10T12:53:32.703Z,77.36
2022-10-10T12:56:03.120Z,77.08
2022-10-10T12:58:39.387Z,77.08
2022-10-10T13:01:23.211Z,76.79
2022-10-10T13:03:53.137Z,76.68
2022-10-10T13:06:40.435Z,76.68
2022-10-10T13:09:35.177Z,76.65
2022-10-10T13:12:06.398Z,76.25
2022-10-10T13:14:46.475Z,76.52
2022-10-10T13:17:37.578Z,76.60
2022-10-10T13:20:07.182Z,76.54
2022-10-10T13:22:37.709Z,76.72
2022-10-10T13:25:11.086Z,76.86
2022-10-10T13:27:38.971Z,76.96
2022-10-10T13:30:08.295Z,77.04
2022-10-10T13:32:37.177Z,77.17
2022-10-10T13:35:18.425Z,77.11
2022-10-10T13:37:48.561Z,77.04
2022-10-10T13:40:17.721Z,77.13
2022-10-10T13:42:49.512Z,77.11
2022-10-10T13:45:30.172Z,77.13
2022-10-10T13:48:03.909Z,77.21
2022-10-10T13:50:37.089Z,77.35
2022-10-10T13:53:25.520Z,77.41
2022-10-10T13:56:26.429Z,77.48
2022-10-10T13:59:02.933Z,77.53
2022-10-10T14:01:35.458Z,77.66
2022-10-10T14:04:09.053Z,77.80
2022-10-10T14:06:37.352Z,77.86
2022-10-10T14:09:15.039Z,77.96
2022-10-10T14:11:44.693Z,78.07
2022-10-10T14:14:23.276Z,78.12
2022-10-10T14:17:04.737Z,78.10
2022-10-10T14:19:34.311Z,77.99
2022-10-10T14:22:02.090Z,78.19
2022-10-10T14:24:29.778Z,78.22
2022-10-10T14:26:57.433Z,78.32
2022-10-10T14:29:25.272Z,78.40
2022-10-10T14:31:52.892Z,78.48
2022-10-10T14:34:20.597Z,78.60
2022-10-10T14:36:51.454Z,78.71
2022-10-10T14:39:20.697Z,78.89
2022-10-10T14:41:48.569Z,79.10
2022-10-10T14:44:16.463Z,79.29
2022-10-10T14:46:44.560Z,79.39
2022-10-10T14:49:21.187Z,79.50
2022-10-10T14:51:49.425Z,79.64
2022-10-10T14:54:17.123Z,79.65
2022-10-10T14:57:07.043Z,79.72
2022-10-10T14:59:46.409Z,79.73
2022-10-10T15:02:19.028Z,79.83
2022-10-10T15:04:46.769Z,79.91
2022-10-10T15:07:15.442Z,79.98
2022-10-10T15:10:11.217Z,80.19
2022-10-10T15:12:41.471Z,80.27
2022-10-10T15:15:10.050Z,80.27
2022-10-10T15:17:37.838Z,80.41
2022-10-10T15:20:08.461Z,80.47
2022-10-10T15:22:37.102Z,80.55
2022-10-10T15:25:06.019Z,80.58
2022-10-10T15:27:33.979Z,80.62
2022-10-10T15:30:01.933Z,80.61
2022-10-10T15:32:29.592Z,80.64
2022-10-10T15:34:57.418Z,80.50
2022-10-10T15:37:27.454Z,80.39
2022-10-10T15:39:55.419Z,80.23
2022-10-10T15:42:23.706Z,80.20
2022-10-10T15:44:52.392Z,80.14
2022-10-10T15:47:21.248Z,80.19
2022-10-10T15:49:50.038Z,80.38
2022-10-10T15:52:18.948Z,80.55
2022-10-10T15:54:49.951Z,80.60
2022-10-10T15:57:19.193Z,80.79
2022-10-10T15:59:47.675Z,80.83
2022-10-10T16:02:15.962Z,80.92
2022-10-10T16:04:44.048Z,81.06
2022-10-10T16:07:25.936Z,81.07
2022-10-10T16:09:57.239Z,81.06
2022-10-10T16:12:24.883Z,81.01
2022-10-10T16:14:52.515Z,80.98
2022-10-10T16:17:23.306Z,80.94
2022-10-10T16:19:51.645Z,80.87
2022-10-10T16:22:19.243Z,80.86
2022-10-10T16:24:58.443Z,80.82
2022-10-10T16:27:36.916Z,80.96
2022-10-10T16:30:05.126Z,81.06
2022-10-10T16:32:36.903Z,81.16
2022-10-10T16:35:09.124Z,81.28
2022-10-10T16:37:36.766Z,81.55
2022-10-10T16:40:05.250Z,81.65
2022-10-10T16:42:32.881Z,81.73
2022-10-10T16:45:00.573Z,81.87
2022-10-10T16:47:28.231Z,81.86
2022-10-10T16:49:55.931Z,81.95
2022-10-10T16:52:23.616Z,82.17
2022-10-10T16:54:52.330Z,82.35
2022-10-10T16:57:20.671Z,82.50
2022-10-10T16:59:48.396Z,82.73
2022-10-10T17:02:16.041Z,82.94
2022-10-10T17:04:43.681Z,83.15
2022-10-10T17:07:11.400Z,83.35
2022-10-10T17:09:39.047Z,83.56
2022-10-10T17:12:06.793Z,83.73
2022-10-10T17:14:34.492Z,83.99
2022-10-10T17:17:17.478Z,84.11
2022-10-10T17:19:45.223Z,84.20
2022-10-10T17:22:12.847Z,84.43
2022-10-10T17:24:40.500Z,84.61
2022-10-10T17:27:08.273Z,84.81
2022-10-10T17:29:36.012Z,84.90
2022-10-10T17:32:06.584Z,85.07
2022-10-10T17:34:34.636Z,85.15
2022-10-10T17:37:02.462Z,85.39
2022-10-10T17:39:31.056Z,85.50
2022-10-10T17:41:58.774Z,85.75
2022-10-10T17:44:26.667Z,85.83
2022-10-10T17:46:54.434Z,86.04
2022-10-10T17:49:22.156Z,86.18
2022-10-10T17:51:50.084Z,86.26
2022-10-10T17:54:17.786Z,86.47
2022-10-10T17:56:48.213Z,86.65
2022-10-10T17:59:15.928Z,86.79
2022-10-10T18:01:43.628Z,87.05
2022-10-10T18:04:15.132Z,87.30
2022-10-10T18:06:42.788Z,87.39
2022-10-10T18:09:10.813Z,87.56
2022-10-10T18:11:38.437Z,87.76
2022-10-10T18:14:06.179Z,87.81
2022-10-10T18:16:35.984Z,87.95
2022-10-10T18:19:06.249Z,88.22
2022-10-10T18:21:34.758Z,88.43
2022-10-10T18:24:02.710Z,88.58
2022-10-10T18:26:31.512Z,88.62
2022-10-10T18:28:59.768Z,88.81
2022-10-10T18:31:30.625Z,88.85
2022-10-10T18:33:58.591Z,89.12
2022-10-10T18:36:29.910Z,89.15
2022-10-10T18:39:02.976Z,89.36
2022-10-10T18:41:35.116Z,89.50
2022-10-10T18:44:12.042Z,89.49
2022-10-10T18:46:40.487Z,89.69
2022-10-10T18:49:10.192Z,89.61
2022-10-10T18:51:40.981Z,89.78
2022-10-10T18:54:10.018Z,89.96
2022-10-10T18:56:39.695Z,90.04
2022-10-10T18:59:11.402Z,90.18
2022-10-10T19:01:41.007Z,90.45
2022-10-10T19:04:10.752Z,90.52
2022-10-10T19:06:40.259Z,90.62
2022-10-10T19:09:11.273Z,90.70
2022-10-10T19:11:41.453Z,90.68
2022-10-10T19:14:12.325Z,91.01
2022-10-10T19:16:41.892Z,91.04
2022-10-10T19:19:11.999Z,91.01
2022-10-10T19:21:40.136Z,91.03
2022-10-10T19:24:10.001Z,91.27
2022-10-10T19:26:37.851Z,91.27
2022-10-10T19:29:08.758Z,91.48
2022-10-10T19:31:41.202Z,91.59
2022-10-10T19:34:08.861Z,91.83
2022-10-10T19:36:38.578Z,91.73
2022-10-10T19:39:10.122Z,91.74
2022-10-10T19:41:37.834Z,91.69
2022-10-10T19:44:06.846Z,91.75
2022-10-10T19:46:37.205Z,91.72
2022-10-10T19:49:05.418Z,91.73
2022-10-10T19:51:33.279Z,91.87
2022-10-10T19:54:00.924Z,92.00
2022-10-10T19:56:28.992Z,92.16
2022-10-10T19:58:58.879Z,92.24
2022-10-10T20:01:29.841Z,92.41
2022-10-10T20:03:58.945Z,92.56
2022-10-10T20:06:27.584Z,92.65
2022-10-10T20:08:55.718Z,92.74
2022-10-10T20:11:24.349Z,92.93
2022-10-10T20:13:56.494Z,93.21
2022-10-10T20:16:27.141Z,93.28
2022-10-10T20:18:55.842Z,93.44
2022-10-10T20:21:30.391Z,93.57
2022-10-10T20:24:00.143Z,93.76
2022-10-10T20:26:28.566Z,93.85
2022-10-10T20:28:57.932Z,93.96
2022-10-10T20:31:31.868Z,94.07
2022-10-10T20:34:03.950Z,94.30
2022-10-10T20:36:33.527Z,94.25
2022-10-10T20:39:08.896Z,94.28
2022-10-10T20:41:38.859Z,94.40
2022-10-10T20:44:08.498Z,94.44
2022-10-10T20:46:38.962Z,94.59
2022-10-10T20:49:09.328Z,94.99
2022-10-10T20:51:37.173Z,95.63
2022-10-10T20:54:06.917Z,95.41
2022-10-10T20:56:36.365Z,95.32
2022-10-10T20:59:04.129Z,95.32
2022-10-10T21:01:32.412Z,95.33
2022-10-10T21:04:00.602Z,95.42
2022-10-10T21:06:33.640Z,96.28
2022-10-10T21:09:03.265Z,97.52
2022-10-10T21:11:31.071Z,97.04
2022-10-10T21:14:00.655Z,97.09
2022-10-10T21:16:31.574Z,97.02
2022-10-10T21:18:59.495Z,96.80
2022-10-10T21:21:30.791Z,97.13
2022-10-10T21:23:58.852Z,96.99
2022-10-10T21:26:29.132Z,96.82
2022-10-10T21:28:58.551Z,97.19
2022-10-10T21:31:28.966Z,97.40
2022-10-10T21:33:57.594Z,97.11
2022-10-10T21:36:26.822Z,97.03
2022-10-10T21:38:57.084Z,96.98
2022-10-10T21:41:25.733Z,97.07
2022-10-10T21:43:58.300Z,97.12
2022-10-10T21:46:35.591Z,96.92
2022-10-10T21:49:07.673Z,96.92
2022-10-10T21:51:41.130Z,97.01
2022-10-10T21:54:09.933Z,96.94
2022-10-10T21:56:38.134Z,97.26
2022-10-10T21:59:06.688Z,97.66
2022-10-10T22:01:34.663Z,97.33
2022-10-10T22:04:03.821Z,97.43
2022-10-10T22:06:31.970Z,97.63
2022-10-10T22:09:01.438Z,97.25
2022-10-10T22:11:30.978Z,97.06
2022-10-10T22:13:59.062Z,97.07
2022-10-10T22:16:26.768Z,97.06
2022-10-10T22:18:57.745Z,97.66
2022-10-10T22:21:30.364Z,97.61
2022-10-10T22:23:59.811Z,97.69
2022-10-10T22:26:27.523Z,97.36
2022-10-10T22:28:55.309Z,97.41
2022-10-10T22:31:23.019Z,97.47
2022-10-10T22:33:50.763Z,97.82
2022-10-10T22:36:18.423Z,97.52
2022-10-10T22:38:46.584Z,97.58
2022-10-10T22:41:15.192Z,98.24
2022-10-10T22:43:42.939Z,98.78
2022-10-10T22:46:10.618Z,98.56
2022-10-10T22:48:38.460Z,98.28
2022-10-10T22:51:14.536Z,98.25
2022-10-10T22:53:43.536Z,98.58
2022-10-10T22:56:16.388Z,98.62
2022-10-10T22:58:44.560Z,98.50
2022-10-10T23:01:20.090Z,98.76
2022-10-10T23:03:48.338Z,98.34
2022-10-10T23:06:16.516Z,98.63
2022-10-10T23:08:44.171Z,98.43
2022-10-10T23:11:11.815Z,98.41
2022-10-10T23:13:39.419Z,98.54
2022-10-10T23:16:07.830Z,98.50
2022-10-10T23:18:35.839Z,98.13
2022-10-10T23:21:03.706Z,98.16
2022-10-10T23:23:31.294Z,98.15
2022-10-10T23:25:59.061Z,98.03
2022-10-10T23:28:26.761Z,98.31
2022-10-10T23:30:54.391Z,98.39
2022-10-10T23:33:21.998Z,98.35
2022-10-10T23:36:01.560Z,98.70
2022-10-10T23:38:30.160Z,98.78
2022-10-10T23:40:58.351Z,98.68
2022-10-10T23:43:26.071Z,98.89
2022-10-10T23:45:54.251Z,98.68
2022-10-10T23:48:21.893Z,98.89
2022-10-10T23:50:49.625Z,98.85
2022-10-10T23:53:17.255Z,99.25
2022-10-10T23:55:44.911Z,99.58
2022-10-10T23:58:12.567Z,99.29
